Pahrump, Nevada Weather observations

Data are for observation ending at time listed.
 Day   Time    Ave.   Ave.  Ave.  Vector   Max.   Stn.    Total    Solar   Ave.  
  of    of     Air    Rel.  Wind   Wind    Wind   Baro.  Precip.   Rad.    Soil  
Year   Day     Temp.  Hum.  Speed  Dir.    Gust   Pres.                    Temp. 
2016   (PST)    F      %     mph   deg.    mph     mb.     in.     W/m2     F   
------------------------------------------------------------------------------
 212    2:00   95.0    17   10.1   135     13.0   919.4    0.00       0    98.0
 212    2:10   94.9    17    9.6   135     13.9   919.4    0.00       0    97.8
 212    2:20   95.0    17    8.4   152     14.9   919.4    0.00       0    97.7
 212    2:30   94.4    17   10.1   170     15.0   919.4    0.00       0    97.6
 212    2:40   93.7    18    8.9   175     12.7   919.5    0.00       0    97.6
 212    2:50   93.0    18    9.2   177     13.2   919.5    0.00       0    97.5
 212    3:00   92.6    18    9.7   169     15.2   919.5    0.00       0    97.5
 212    3:10   91.7    19   10.1   173     17.2   919.8    0.00       0    97.4
 212    3:20   90.3    27   13.6   164     20.2   919.9    0.00       0    97.4
 212    3:30   89.1    32   13.9   171     23.0   920.0    0.00       0    97.3
 212    3:40   87.9    36   15.1   164     25.1   920.0    0.00       0    97.2
 212    3:50   87.9    35   12.7   160     18.9   920.0    0.00       0    97.1
 212    4:00   88.1    34   12.4   145     18.6   920.0    0.00       0    97.0
 212    4:10   88.1    34   12.1   140     16.9   920.1    0.00       0    96.9
 212    4:20   88.1    34   11.8   138     18.6   920.2    0.00       0    96.8
 212    4:30   88.6    32   10.5   148     17.0   920.3    0.00       0    96.7
 212    4:40   88.9    32   11.7   154     16.7   920.4    0.00       0    96.6
 212    4:50   88.8    32   11.4   147     17.6   920.6    0.00       0    96.5
 212    5:00   88.7    33   10.7   141     17.1   920.8    0.00       0    96.4
 212    5:10   88.8    32   11.3   140     16.1   921.0    0.00       0    96.3
 212    5:20   89.3    31   11.2   138     16.7   921.2    0.00       0    96.2
 212    5:30   89.5    31   10.4   140     17.0   921.3    0.00       0    96.1
 212    5:40   89.6    31    9.6   145     15.8   921.4    0.00       0    96.0
 212    5:50   89.6    32   10.1   142     16.0   921.6    0.00       0    96.0
 212    6:00   89.5    32   10.6   149     17.0   921.8    0.00       0    95.9
 212    6:10   89.7    32    9.4   150     14.6   921.9    0.00       0    95.9
 212    6:20   89.6    32   11.4   162     17.5   922.0    0.00       0    95.9
 212    6:30   89.5    33   11.0   168     15.9   922.2    0.00       0    95.8
 212    6:40   89.8    32   10.5   170     17.0   922.4    0.00       0    95.8
 212    6:50   89.8    33   12.3   167     18.6   922.6    0.00       0    95.8
 212    7:00   89.7    33   13.2   162     19.0   922.8    0.00       0    95.8
 212    7:10   89.8    33   12.4   152     17.6   922.9    0.00       0    95.8
 212    7:20   90.1    33   11.8   157     17.6   923.1    0.00       0    95.8
 212    7:30   89.9    34   12.7   161     20.7   923.3    0.00       0    95.9
 212    7:40   90.2    33   11.9   148     19.1   923.4    0.00       0    96.0
 212    7:50   90.7    33   11.9   147     19.3   923.5    0.00       0    96.1
 212    8:00   91.1    33   11.2   143     16.1   923.6    0.00       0    96.2
 212    8:10   91.3    32   11.9   148     18.8   923.7    0.00       0    96.3
 212    8:20   91.5    32   11.2   158     18.4   923.7    0.00       0    96.4
 212    8:30   91.5    33    9.6   173     15.4   923.7    0.00       0    96.6
 212    8:40   91.9    32   10.7   186     16.3   923.8    0.00       0    96.7
 212    8:50   91.9    32    9.7   174     15.3   924.0    0.00       0    96.9
 212    9:00   92.4    31    7.4   183     13.4   924.0    0.00       0    97.2
 212    9:10   92.9    31    6.2   167     12.9   924.1    0.00       0    97.4
 212    9:20   93.6    30    5.3   189     11.0   924.1    0.00       0    97.5
 212    9:30   94.0    30    5.3   166     10.8   924.0    0.00       0    97.7
 212    9:40   94.5    29    6.1   173     11.0   924.0    0.00       0    98.0
 212    9:50   94.2    30    5.9   154     12.1   924.1    0.00       0    98.2
 212   10:00   95.5    28    6.3   126     12.6   924.0    0.00       0    98.5
 212   10:10   95.9    28    5.7   179     11.5   924.1    0.00       0    98.8
 212   10:20   96.3    27    4.9   153     11.9   924.1    0.00       0    99.0
 212   10:30   96.5    26    3.8   165      8.8   924.1    0.00       0    99.3
 212   10:40   97.2    25    5.3   195     10.4   924.1    0.00       0    99.6
 212   10:50   97.4    26    3.3   185      8.2   924.0    0.00       0    99.9
 212   11:00  100.1    24    1.6   163      6.2   923.9    0.00       0    100.2
 212   11:10   99.2    23    4.8   184     11.5   923.9    0.00       0    100.5
 212   11:20   99.3    23    3.9   232      8.6   923.9    0.00       0    100.9
 212   11:30  100.1    23    2.7   292      7.2   923.8    0.00       0    101.2
 212   11:40  100.2    22    3.2   173      7.2   923.8    0.00       0    101.6
 212   11:50   99.6    22    4.2   195     11.9   923.7    0.00       0    102.0
 212   12:00  101.4    21    2.0   294      7.2   923.6    0.00       0    102.4
 212   12:10  102.8    20    1.8   155      5.5   923.6    0.00       0    102.8
 212   12:20  103.0    20    3.6   255     12.0   923.5    0.00       0    103.2
 212   12:30  104.5    18    4.8   274      9.7   923.5    0.00       0    103.7
 212   12:40  104.8    18    3.6   275     12.3   923.5    0.00       0    104.1
 212   12:50  103.8    18    3.4   286      8.3   923.4    0.00       0    104.5
 212   13:00  103.9    18    3.9   243      8.3   923.3    0.00       0    104.9
 212   13:10  102.5    17    4.3   220     11.5   923.2    0.00       0    105.3
 212   13:20  103.6    17    3.9   280     11.1   923.0    0.00       0    105.7
 212   13:30  103.5    17    3.9   294      9.1   922.8    0.00       0    106.0
 212   13:40  103.9    17    3.9   235      9.1   922.7    0.00       0    106.3
 212   13:50  102.6    17    2.7   157      6.4   922.5    0.00       0    106.5
 212   14:00  103.5    17    2.6   236      8.6   922.2    0.00       0    106.7
 212   14:10  105.2    16    2.5   304      6.3   921.9    0.00       0    106.8
 212   14:20  104.1    16    3.6   249     10.7   921.6    0.00       0    107.0
 212   14:30  104.7    16    2.8   250      8.8   921.4    0.00       0    107.0
 212   14:40  105.4    15    4.4   254      9.8   921.2    0.00       0    107.0
 212   14:50  105.3    15    3.9   259      9.4   921.0    0.00       0    107.0
 212   15:00  104.8    15    2.6   300      8.2   920.8    0.00       0    106.9
 212   15:10  104.3    15    4.7   200     12.6   920.5    0.00       0    106.8
 212   15:20  103.8    15    4.8   191     11.2   920.4    0.00       0    106.6
 212   15:30  103.7    14    3.0   192      7.7   920.2    0.00       0    106.3
 212   15:40  104.2    14    4.9   182     10.0   920.0    0.00       0    106.1
 212   15:50  103.9    14    6.4   172     10.2   920.0    0.00       0    105.8
 212   16:00  103.2    14    5.0   161     11.1   919.8    0.00       0    105.5
 212   16:10  103.0    14    3.6   111      6.9   919.7    0.00       0    105.3
 212   16:20  102.9    14    2.7   254      7.7   919.5    0.00       0    105.0
 212   16:30  103.8    14    3.5   193      9.1   919.4    0.00       0    104.8
 212   16:40  104.1    14    3.7   211      8.0   919.3    0.00       0    104.6
 212   16:50  103.5    14    5.4   204     11.0   919.3    0.00       0    104.3
 212   17:00  103.5    14    2.8   250      7.8   919.2    0.00       0    104.1
 212   17:10  103.6    14    2.6   270      6.5   919.1    0.00       0    103.9
 212   17:20  103.3    14    2.8   204     10.0   919.0    0.00       0    103.7
 212   17:30  103.1    14    4.6   174      7.7   918.9    0.00       0    103.6
 212   17:40  103.0    16    3.6   217      8.1   918.8    0.00       0    103.4
 212   17:50  102.4    17    3.1   229      8.3   918.8    0.00       0    103.2
 212   18:00  102.3    17    2.5   238      5.3   918.7    0.00       0    103.0
 212   18:10  101.6    18    3.8   216     12.3   918.8    0.00       0    102.9
 212   18:20  100.6    20    5.3   209     13.9   918.9    0.00       0    102.7
 212   18:30   99.8    21    5.7   203     12.2   918.8    0.00       0    102.6
 212   18:40   99.5    21    7.6   189     13.8   918.8    0.00       0    102.4
 212   18:50   98.8    22   10.7   182     15.9   918.8    0.00       0    102.2
 212   19:00   98.0    22    8.1   193     15.4   918.8    0.00       0    102.1
 212   19:10   97.6    23    7.5   189     14.2   918.8    0.00       0    101.9
 212   19:20   97.5    23    8.1   174     12.6   918.9    0.00       0    101.8
 212   19:30   97.2    23    5.7   163     10.2   919.0    0.00       0    101.6
 212   19:40   97.2    23    7.4   165     11.3   919.1    0.00       0    101.4
 212   19:50   96.7    24    7.1   172     12.6   919.2    0.00       0    101.3
 212   20:00   96.0    24    4.3   204     11.2   919.3    0.00       0    101.1
 212   20:10   95.6    24    6.5   194     14.7   919.5    0.00       0    101.0
 212   20:20   95.8    24    8.9   177     14.3   919.5    0.00       0    100.8
 212   20:30   95.8    24    8.9   167     13.7   919.7    0.00       0    100.7
 212   20:40   95.8    23    9.2   139     15.4   919.9    0.00       0    100.5
 212   20:50   95.3    23   10.0   131     14.2   920.0    0.00       0    100.4
 212   21:00   95.5    22   10.8   134     15.1   920.0    0.00       0    100.2
 212   21:10   95.5    22   10.8   135     17.0   920.0    0.00       0    100.1
 212   21:20   95.4    22    9.8   140     19.4   920.1    0.00       0    100.0
 212   21:30   95.6    22    9.4   160     16.5   920.1    0.00       0    99.8
 212   21:40   95.0    23    8.8   169     14.0   920.1    0.00       0    99.7
 212   21:50   95.1    24    8.2   159     12.3   920.1    0.00       0    99.6
 212   22:00   94.6    24    7.6   158     11.8   920.1    0.00       0    99.4
 212   22:10   94.5    24    7.2   160     12.3   920.1    0.00       0    99.3
 212   22:20   94.0    25    7.3   162     12.3   920.1    0.00       0    99.2
 212   22:30   94.4    24    8.2   144     12.9   920.1    0.00       0    99.1
 212   22:40   94.0    25    9.6   151     15.0   920.0    0.00       0    98.9
 212   22:50   93.7    25   10.2   143     15.9   919.9    0.00       0    98.8
 212   23:00   93.4    25   11.3   136     16.6   920.1    0.00       0    98.6
 212   23:10   93.2    25    9.9   134     14.2   920.2    0.00       0    98.5
 212   23:20   93.3    25    9.2   136     12.6   920.2    0.00       0    98.4
 212   23:30   93.5    25    9.1   130     14.5   920.3    0.00       0    98.3
 212   23:40   93.3    25    7.1   145     11.8   920.2    0.00       0    98.2
 212   23:50   93.4    25    8.0   149     12.9   920.1    0.00       0    98.1
 213    0:00   93.2    25    4.6   174      6.5   920.0    0.00       0    98.0
 213    0:10   92.4    25    6.4   174     10.4   920.1    0.00       0    97.9
 213    0:20   92.5    25    6.9   153      9.8   920.1    0.00       0    97.8
 213    0:30   91.8    26    6.3   177     10.2   920.1    0.00       0    97.7
 213    0:40   90.8    27    6.4   182     10.6   920.2    0.00       0    97.6
 213    0:50   90.4    28    6.1   177     10.2   920.3    0.00       0    97.4
 213    1:00   90.5    28    7.3   169     11.2   920.3    0.00       0    97.3
 213    1:10   90.4    28    7.5   160     11.2   920.3    0.00       0    97.3
 213    1:20   90.2    29    8.8   169     14.7   920.2    0.00       0    97.2
 213    1:30   90.5    30   10.5   168     18.5   920.2    0.00       0    97.0
 213    1:40   90.3    30   10.1   170     16.1   920.2    0.00       0    97.0
 213    1:50   90.0    30    8.7   159     14.5   920.3    0.00       0    96.8

Return to Pahrump, Nevada graphs page.


Western Regional Climate Center,wrcc@dri.edu